Time;durP1;ratioP1;P1;durP2;ratioP2;P2;SDS_P1;SDS_P2;PMS_P1;PMS_P2;Temp;Humidity;BMP_temperature;BMP_pressure;BME280_temperature;BME280_humidity;BME280_pressure;Samples;Min_cycle;Max_cycle;Signal;HPM_P1;HPM_P2
2023/08/21 00:00:04;;;;;;;13.88;5.20;;;18.10;99.90;;;;;;5066182;28;20063;-77
2023/08/21 00:02:30;;;;;;;15.35;5.47;;;19.50;99.90;;;;;;5069663;28;20127;-77
2023/08/21 00:04:56;;;;;;;16.50;6.22;;;;;;;;;;5084579;28;20524;-77
2023/08/21 00:07:22;;;;;;;13.60;5.82;;;18.80;99.90;;;;;;5075979;28;20076;-78
2023/08/21 00:09:48;;;;;;;12.27;5.20;;;;;;;;;;5076387;28;20031;-78
2023/08/21 00:12:14;;;;;;;12.88;5.47;;;18.00;99.90;;;;;;5059950;28;20032;-78
2023/08/21 00:14:39;;;;;;;18.80;6.45;;;17.20;99.90;;;;;;5077553;28;20138;-77
2023/08/21 00:17:06;;;;;;;11.38;5.30;;;18.50;99.90;;;;;;5075637;28;20096;-77
2023/08/21 00:19:32;;;;;;;11.60;5.45;;;19.10;99.90;;;;;;5075882;28;20031;-78
2023/08/21 00:21:59;;;;;;;17.85;5.45;;;18.10;99.90;;;;;;5093440;28;20035;-81
2023/08/21 00:24:25;;;;;;;14.05;5.55;;;;;;;;;;5088492;28;20121;-81
2023/08/21 00:26:51;;;;;;;12.07;5.03;;;18.40;99.90;;;;;;5092859;28;20079;-80
2023/08/21 00:29:17;;;;;;;14.90;4.97;;;;;;;;;;5070407;28;20059;-80
2023/08/21 00:31:42;;;;;;;9.05;4.80;;;18.60;99.90;;;;;;5074979;28;20043;-81
2023/08/21 00:34:09;;;;;;;12.63;4.70;;;;;;;;;;5082359;28;20032;-80
2023/08/21 00:36:35;;;;;;;12.75;4.90;;;;;;;;;;5080661;28;20139;-80
2023/08/21 00:39:01;;;;;;;11.63;4.95;;;;;;;;;;5068543;28;20036;-81
2023/08/21 00:41:27;;;;;;;8.70;4.72;;;17.10;99.90;;;;;;5083468;28;20046;-81
2023/08/21 00:43:53;;;;;;;14.68;3.88;;;;;;;;;;5070355;28;20126;-81
2023/08/21 00:46:18;;;;;;;15.05;5.28;;;19.00;99.90;;;;;;5074961;28;20403;-80
2023/08/21 00:48:44;;;;;;;11.60;4.80;;;19.00;99.90;;;;;;5083204;28;20046;-77
2023/08/21 00:51:11;;;;;;;18.00;5.45;;;18.20;99.90;;;;;;5076521;28;20044;-77
2023/08/21 00:53:38;;;;;;;16.02;4.50;;;16.70;99.90;;;;;;5097129;28;20048;-80
2023/08/21 00:56:04;;;;;;;13.73;4.38;;;17.80;99.90;;;;;;5079968;28;20044;-80
2023/08/21 00:58:30;;;;;;;18.63;4.97;;;;;;;;;;5066018;28;20058;-80
2023/08/21 01:00:57;;;;;;;10.52;4.05;;;;;;;;;;5067464;28;20438;-80
2023/08/21 01:03:24;;;;;;;10.95;4.80;;;17.60;99.90;;;;;;5091181;28;20490;-80
2023/08/21 01:05:50;;;;;;;10.63;4.28;;;16.50;99.90;;;;;;5079661;28;20038;-80
2023/08/21 01:08:56;;;;;;;9.25;4.00;;;16.70;99.90;;;;;;5068673;28;20044;-80
2023/08/21 01:11:31;;;;;;;9.15;3.78;;;17.20;99.90;;;;;;5088456;28;20044;-81
2023/08/21 01:13:56;;;;;;;9.68;3.85;;;17.00;99.90;;;;;;5064219;28;20442;-81
2023/08/21 01:16:24;;;;;;;11.55;3.85;;;17.60;99.90;;;;;;5090009;28;20036;-81
2023/08/21 01:18:50;;;;;;;8.98;3.97;;;17.50;99.90;;;;;;5065516;28;20043;-80
2023/08/21 01:21:17;;;;;;;9.63;4.03;;;18.50;99.90;;;;;;5084851;28;20039;-81
2023/08/21 01:23:43;;;;;;;9.73;4.63;;;;;;;;;;5063835;28;20052;-81
2023/08/21 01:26:09;;;;;;;10.70;4.00;;;18.60;99.90;;;;;;5079476;28;20040;-78
2023/08/21 01:28:35;;;;;;;12.27;4.35;;;16.70;99.90;;;;;;5062340;28;20035;-77
2023/08/21 01:31:05;;;;;;;7.75;4.00;;;18.60;99.90;;;;;;5093227;28;20042;-77
2023/08/21 01:33:34;;;;;;;12.30;3.92;;;18.60;99.90;;;;;;5088090;28;20118;-78
2023/08/21 01:36:03;;;;;;;8.13;3.40;;;17.40;99.90;;;;;;5086344;28;20058;-77
2023/08/21 01:38:32;;;;;;;9.98;3.58;;;16.20;99.90;;;;;;5079945;28;20394;-78
2023/08/21 01:40:58;;;;;;;10.32;3.97;;;18.40;99.90;;;;;;5095000;28;20118;-78
2023/08/21 01:43:24;;;;;;;11.98;4.13;;;;;;;;;;5045981;28;20138;-77
2023/08/21 01:45:50;;;;;;;10.27;4.28;;;18.10;99.90;;;;;;5079783;28;20406;-78
2023/08/21 01:48:16;;;;;;;7.75;3.50;;;;;;;;;;5081204;28;20111;-77
2023/08/21 01:50:42;;;;;;;10.07;4.13;;;16.30;99.90;;;;;;5082414;28;20049;-77
2023/08/21 01:53:08;;;;;;;6.75;3.90;;;17.30;99.90;;;;;;5078560;28;20052;-77
2023/08/21 01:55:34;;;;;;;4.68;2.83;;;;;;;;;;5061987;28;20453;-80
2023/08/21 01:57:59;;;;;;;7.20;2.80;;;15.90;99.90;;;;;;5077927;28;20047;-80
2023/08/21 02:00:25;;;;;;;6.35;3.10;;;18.10;99.90;;;;;;5086880;28;20040;-81
2023/08/21 02:02:51;;;;;;;6.03;3.03;;;;;;;;;;5078938;28;20051;-80
2023/08/21 02:05:17;;;;;;;6.30;2.90;;;15.80;99.90;;;;;;5068093;28;20043;-80
2023/08/21 02:07:42;;;;;;;8.93;3.28;;;16.10;99.90;;;;;;5085675;28;20032;-81
2023/08/21 02:10:09;;;;;;;5.88;3.15;;;;;;;;;;5095551;28;20027;-80
2023/08/21 02:12:34;;;;;;;8.55;3.70;;;17.10;99.90;;;;;;5071345;28;20091;-80
2023/08/21 02:15:00;;;;;;;8.70;3.70;;;;;;;;;;5079729;28;20118;-80
2023/08/21 02:17:27;;;;;;;9.38;3.70;;;;;;;;;;5078961;28;20498;-80
2023/08/21 02:19:52;;;;;;;11.18;3.58;;;17.50;99.90;;;;;;5062678;28;20503;-80
2023/08/21 02:22:18;;;;;;;11.38;3.70;;;;;;;;;;5078701;28;21308;-80
2023/08/21 02:24:44;;;;;;;7.82;3.42;;;;;;;;;;5092028;28;20055;-80
2023/08/21 02:27:10;;;;;;;5.85;3.10;;;17.70;99.90;;;;;;5078669;28;20169;-80
2023/08/21 02:29:36;;;;;;;6.95;3.38;;;;;;;;;;5078446;28;20500;-80
2023/08/21 02:32:02;;;;;;;5.38;3.10;;;;;;;;;;5092539;28;20046;-80
2023/08/21 02:34:28;;;;;;;7.70;3.13;;;16.70;99.90;;;;;;5092832;28;20038;-80
2023/08/21 02:36:54;;;;;;;7.15;3.40;;;16.60;99.90;;;;;;5076265;28;20395;-80
2023/08/21 02:39:20;;;;;;;9.75;3.20;;;;;;;;;;5093808;28;20035;-80
2023/08/21 02:41:46;;;;;;;10.23;3.35;;;;;;;;;;5066029;28;21865;-80
2023/08/21 02:44:12;;;;;;;5.03;3.00;;;;;;;;;;5077353;28;20032;-80
2023/08/21 02:46:38;;;;;;;4.03;2.70;;;17.80;99.90;;;;;;5081432;28;20043;-81
2023/08/21 02:49:04;;;;;;;8.15;3.15;;;;;;;;;;5094656;28;20027;-80
2023/08/21 02:51:30;;;;;;;6.65;3.08;;;;;;;;;;5087216;28;20075;-80
2023/08/21 02:53:56;;;;;;;8.55;3.47;;;17.60;99.90;;;;;;5092728;28;20056;-81
2023/08/21 02:56:22;;;;;;;9.02;3.47;;;;;;;;;;5094187;28;20503;-81
2023/08/21 02:58:48;;;;;;;5.40;3.10;;;17.70;99.90;;;;;;5078452;28;20131;-81
2023/08/21 03:01:14;;;;;;;9.60;3.30;;;;;;;;;;5060151;28;20130;-81
2023/08/21 03:03:40;;;;;;;8.27;3.83;;;;;;;;;;5091509;28;20096;-80
2023/08/21 03:06:06;;;;;;;10.10;3.55;;;;;;;;;;5063721;28;20035;-78
2023/08/21 03:08:32;;;;;;;6.57;3.30;;;17.70;99.90;;;;;;5061001;28;20028;-77
2023/08/21 03:10:58;;;;;;;8.63;3.20;;;;;;;;;;5061069;28;20051;-77
2023/08/21 03:13:24;;;;;;;15.20;3.85;;;16.20;99.90;;;;;;5088961;28;20036;-77
2023/08/21 03:15:50;;;;;;;7.25;3.25;;;17.70;99.90;;;;;;5077675;28;20044;-77
2023/08/21 03:18:16;;;;;;;7.43;3.45;;;;;;;;;;5077532;28;20495;-77
2023/08/21 03:20:46;;;;;;;11.68;4.00;;;15.20;99.90;;;;;;5093049;28;20051;-77
2023/08/21 03:23:12;;;;;;;6.35;4.10;;;17.70;99.90;;;;;;5092623;28;20088;-77
2023/08/21 03:25:38;;;;;;;10.23;3.80;;;;;;;;;;5090262;28;20036;-80
2023/08/21 03:28:05;;;;;;;8.38;3.55;;;;;;;;;;5058719;28;20449;-80
2023/08/21 03:30:31;;;;;;;7.10;3.65;;;;;;;;;;5071765;28;20035;-81
2023/08/21 03:32:57;;;;;;;6.85;3.58;;;;;;;;;;5071647;28;20036;-80
2023/08/21 03:35:22;;;;;;;8.25;3.60;;;16.90;99.90;;;;;;5077659;28;20383;-80
2023/08/21 03:37:51;;;;;;;9.35;3.80;;;15.30;99.90;;;;;;5094163;28;20091;-80
2023/08/21 03:40:17;;;;;;;7.43;3.78;;;;;;;;;;5074630;28;20394;-80
2023/08/21 03:42:43;;;;;;;11.02;4.15;;;;;;;;;;5059967;28;20043;-80
2023/08/21 03:45:09;;;;;;;11.95;4.10;;;;;;;;;;5083787;28;20050;-80
2023/08/21 03:47:36;;;;;;;10.02;3.92;;;;;;;;;;5058823;28;20082;-80
2023/08/21 03:50:02;;;;;;;10.32;4.10;;;;;;;;;;5077992;28;20081;-80
2023/08/21 03:52:30;;;;;;;8.35;4.38;;;17.00;99.90;;;;;;5093851;28;20105;-80
2023/08/21 03:54:56;;;;;;;10.07;3.97;;;;;;;;;;5076212;28;20480;-80
2023/08/21 03:57:23;;;;;;;7.72;3.83;;;;;;;;;;5077833;28;20158;-81
2023/08/21 03:59:48;;;;;;;8.75;4.00;;;16.40;99.90;;;;;;5074079;28;20040;-81
2023/08/21 04:02:14;;;;;;;9.02;3.83;;;15.20;99.90;;;;;;5064610;28;20357;-80
2023/08/21 04:04:40;;;;;;;6.57;4.03;;;16.20;99.90;;;;;;5088513;28;20036;-80
2023/08/21 04:07:06;;;;;;;8.10;3.40;;;;;;;;;;5076877;28;20036;-80
2023/08/21 04:09:31;;;;;;;5.50;2.80;;;15.30;99.90;;;;;;5097074;28;20365;-81
2023/08/21 04:11:58;;;;;;;7.10;2.70;;;;;;;;;;5086973;28;20093;-81
2023/08/21 04:14:24;;;;;;;3.38;2.40;;;;;;;;;;5090859;28;20043;-80
2023/08/21 04:16:50;;;;;;;3.97;2.97;;;;;;;;;;5063197;28;20101;-80
2023/08/21 04:19:16;;;;;;;5.22;2.90;;;;;;;;;;5077137;28;20040;-81
2023/08/21 04:21:41;;;;;;;7.30;2.83;;;15.50;99.90;;;;;;5069857;28;20093;-79
2023/08/21 04:24:08;;;;;;;7.47;3.10;;;;;;;;;;5058763;28;20131;-77
2023/08/21 04:26:34;;;;;;;20.30;2.72;;;;;;;;;;5070223;28;20032;-82
2023/08/21 04:28:59;;;;;;;6.63;3.30;;;15.00;99.90;;;;;;5069854;28;20122;-77
2023/08/21 04:31:25;;;;;;;5.95;3.60;;;;;;;;;;5089421;28;20556;-77
2023/08/21 04:33:51;;;;;;;5.07;3.13;;;15.70;99.90;;;;;;5068759;28;20071;-77
2023/08/21 04:36:17;;;;;;;8.45;3.60;;;17.10;99.90;;;;;;5085179;28;20120;-76
2023/08/21 04:38:44;;;;;;;6.28;3.20;;;;;;;;;;5062403;28;20126;-76
2023/08/21 04:41:10;;;;;;;7.03;3.80;;;;;;;;;;5080673;28;20044;-76
2023/08/21 04:43:36;;;;;;;6.63;3.15;;;;;;;;;;5085768;28;20040;-76
2023/08/21 04:46:02;;;;;;;6.65;3.25;;;;;;;;;;5079690;28;20039;-76
2023/08/21 04:48:28;;;;;;;9.63;3.53;;;;;;;;;;5077556;28;20089;-76
2023/08/21 04:50:54;;;;;;;6.88;3.70;;;15.20;99.90;;;;;;5088037;28;20038;-76
2023/08/21 04:53:20;;;;;;;8.15;3.85;;;;;;;;;;5089733;28;20126;-76
2023/08/21 04:55:46;;;;;;;5.97;3.80;;;;;;;;;;5088446;28;20098;-78
2023/08/21 04:58:12;;;;;;;6.07;4.10;;;;;;;;;;5064097;28;20394;-76
2023/08/21 05:00:38;;;;;;;5.57;4.00;;;;;;;;;;5087431;28;20046;-76
2023/08/21 05:03:04;;;;;;;6.13;3.72;;;;;;;;;;5109349;28;20050;-77
2023/08/21 05:05:30;;;;;;;7.05;3.60;;;;;;;;;;5090888;28;20047;-76
2023/08/21 05:07:56;;;;;;;6.22;4.22;;;15.10;99.90;;;;;;5074873;28;20085;-77
2023/08/21 05:10:22;;;;;;;7.00;4.18;;;;;;;;;;5083894;28;20127;-77
2023/08/21 05:12:48;;;;;;;6.05;4.05;;;15.90;99.90;;;;;;5074838;28;20115;-76
2023/08/21 05:15:14;;;;;;;5.40;3.97;;;;;;;;;;5062664;28;20605;-76
2023/08/21 05:17:40;;;;;;;5.65;4.20;;;;;;;;;;5082088;28;20098;-80
2023/08/21 05:20:06;;;;;;;6.82;4.53;;;15.00;99.90;;;;;;5081700;28;20075;-80
2023/08/21 05:22:32;;;;;;;5.45;3.75;;;;;;;;;;5091118;28;20147;-79
2023/08/21 05:24:59;;;;;;;6.05;4.10;;;;;;;;;;5069660;28;20133;-79
2023/08/21 05:27:24;;;;;;;4.65;3.67;;;15.30;99.90;;;;;;5075163;28;20039;-79
2023/08/21 05:29:51;;;;;;;5.68;3.45;;;15.40;99.90;;;;;;5077366;28;20043;-79
2023/08/21 05:32:17;;;;;;;9.40;3.72;;;;;;;;;;5040550;28;20048;-79
2023/08/21 05:34:44;;;;;;;6.70;3.95;;;;;;;;;;5070635;28;20123;-79
2023/08/21 05:37:10;;;;;;;6.70;3.90;;;;;;;;;;5064102;28;20036;-78
2023/08/21 05:39:36;;;;;;;5.57;3.67;;;;;;;;;;5089177;28;20476;-79
2023/08/21 05:42:02;;;;;;;6.60;3.90;;;;;;;;;;5078494;28;20036;-79
2023/08/21 05:44:28;;;;;;;5.35;3.58;;;17.50;99.90;;;;;;5089863;28;20117;-76
2023/08/21 05:46:54;;;;;;;5.53;3.83;;;15.60;99.90;;;;;;5072792;28;20125;-77
2023/08/21 05:49:20;;;;;;;7.75;4.10;;;;;;;;;;5099098;28;20130;-76
2023/08/21 05:51:46;;;;;;;6.78;4.05;;;;;;;;;;5077110;28;20044;-76
2023/08/21 05:54:12;;;;;;;6.97;3.90;;;17.50;99.90;;;;;;5086627;28;20052;-77
2023/08/21 05:56:38;;;;;;;8.00;4.10;;;;;;;;;;5074909;28;20139;-77
2023/08/21 05:59:04;;;;;;;8.73;3.60;;;;;;;;;;5070608;28;21303;-77
2023/08/21 06:01:30;;;;;;;7.32;3.65;;;;;;;;;;5081380;28;20470;-76
2023/08/21 06:03:57;;;;;;;6.32;3.92;;;16.60;99.90;;;;;;5090250;28;20082;-76
2023/08/21 06:06:23;;;;;;;7.10;3.70;;;;;;;;;;5089077;28;20032;-77
2023/08/21 06:08:49;;;;;;;10.10;4.35;;;17.60;99.90;;;;;;5071001;28;20038;-77
2023/08/21 06:11:15;;;;;;;9.27;3.95;;;;;;;;;;5062891;28;20039;-77
2023/08/21 06:13:41;;;;;;;7.95;3.90;;;;;;;;;;5067200;28;20118;-76
2023/08/21 06:16:07;;;;;;;9.88;4.43;;;;;;;;;;5088325;28;20036;-77
2023/08/21 06:18:33;;;;;;;6.82;4.10;;;16.00;99.90;;;;;;5095942;28;20055;-77
2023/08/21 06:20:59;;;;;;;10.75;4.25;;;;;;;;;;5089946;28;20411;-77
2023/08/21 06:23:25;;;;;;;12.40;4.90;;;17.50;99.90;;;;;;5093773;28;20047;-77
2023/08/21 06:25:51;;;;;;;10.70;4.10;;;16.20;99.90;;;;;;5085913;28;20035;-77
2023/08/21 06:28:17;;;;;;;10.68;5.55;;;16.80;99.90;;;;;;5094497;28;20031;-77
2023/08/21 06:30:43;;;;;;;8.55;4.50;;;;;;;;;;5096622;28;20491;-76
2023/08/21 06:33:09;;;;;;;9.25;4.53;;;;;;;;;;5083096;28;20039;-76
2023/08/21 06:35:38;;;;;;;6.70;4.22;;;18.20;99.90;;;;;;5078143;28;20047;-76
2023/08/21 06:38:04;;;;;;;12.10;4.85;;;;;;;;;;5087298;28;20399;-76
2023/08/21 06:40:30;;;;;;;10.85;4.38;;;18.40;99.90;;;;;;5091312;28;20072;-80
2023/08/21 06:42:56;;;;;;;9.38;4.25;;;;;;;;;;5059710;28;20503;-76
2023/08/21 06:45:22;;;;;;;11.88;4.63;;;;;;;;;;5094246;28;20432;-77
2023/08/21 06:47:50;;;;;;;12.02;4.90;;;;;;;;;;5070456;28;20502;-77
2023/08/21 06:50:16;;;;;;;13.48;4.53;;;17.20;99.90;;;;;;5076501;28;20051;-76
2023/08/21 06:52:42;;;;;;;14.02;5.28;;;17.80;99.90;;;;;;5080208;28;20032;-77
2023/08/21 06:55:08;;;;;;;18.35;6.22;;;16.90;99.90;;;;;;5079134;28;20059;-77
2023/08/21 06:57:34;;;;;;;13.43;5.88;;;;;;;;;;5095408;28;20083;-77
2023/08/21 06:59:59;;;;;;;14.57;5.43;;;18.30;99.90;;;;;;5096547;28;20039;-77
2023/08/21 07:02:25;;;;;;;18.10;6.07;;;;;;;;;;5077810;28;20097;-76
2023/08/21 07:04:51;;;;;;;15.20;5.60;;;18.10;99.90;;;;;;5089278;28;20517;-77
2023/08/21 07:07:17;;;;;;;13.07;5.43;;;16.80;99.90;;;;;;5084470;28;20032;-77
2023/08/21 07:09:43;;;;;;;12.23;5.45;;;;;;;;;;5096660;28;20039;-77
2023/08/21 07:12:09;;;;;;;18.95;6.32;;;;;;;;;;5083126;28;20043;-77
2023/08/21 07:14:35;;;;;;;10.73;5.22;;;;;;;;;;5078241;28;20510;-77
2023/08/21 07:17:01;;;;;;;13.57;6.15;;;19.00;99.90;;;;;;5092044;28;20156;-77
2023/08/21 07:19:27;;;;;;;14.30;5.93;;;;;;;;;;5077331;28;20563;-75
2023/08/21 07:21:53;;;;;;;12.73;5.93;;;;;;;;;;5079283;28;20445;-76
2023/08/21 07:24:19;;;;;;;18.23;6.43;;;;;;;;;;5097382;28;20043;-76
2023/08/21 07:26:45;;;;;;;18.75;7.20;;;18.80;99.90;;;;;;5086356;28;20044;-76
2023/08/21 07:29:11;;;;;;;19.08;6.32;;;;;;;;;;5075174;28;20092;-76
2023/08/21 07:31:37;;;;;;;17.13;6.20;;;18.00;99.90;;;;;;5089824;28;20036;-77
2023/08/21 07:34:03;;;;;;;21.45;6.45;;;;;;;;;;5080617;28;20483;-76
2023/08/21 07:36:29;;;;;;;20.63;6.63;;;;;;;;;;5091059;28;20071;-76
2023/08/21 07:38:55;;;;;;;15.65;6.20;;;;;;;;;;5088425;28;20069;-76
2023/08/21 07:41:20;;;;;;;17.52;6.32;;;18.10;99.90;;;;;;5092341;28;20476;-76
2023/08/21 07:43:47;;;;;;;18.63;6.82;;;;;;;;;;5093068;28;20043;-75
2023/08/21 07:46:15;;;;;;;20.73;6.63;;;18.50;99.90;;;;;;5075974;28;20423;-76
2023/08/21 07:48:42;;;;;;;20.30;6.82;;;18.60;99.90;;;;;;5076591;28;20039;-76
2023/08/21 07:51:08;;;;;;;16.63;6.45;;;;;;;;;;5078589;28;20372;-75
2023/08/21 07:53:34;;;;;;;21.85;7.40;;;19.60;99.90;;;;;;5095708;28;20092;-76
2023/08/21 07:56:01;;;;;;;20.30;6.57;;;17.80;99.90;;;;;;5090395;28;20058;-76
2023/08/21 07:58:27;;;;;;;21.92;6.80;;;18.50;99.90;;;;;;5092272;28;20046;-76
2023/08/21 08:00:53;;;;;;;17.90;6.22;;;;;;;;;;5094368;28;20403;-76
2023/08/21 08:03:19;;;;;;;18.58;5.70;;;19.00;99.90;;;;;;5058461;28;20067;-76
2023/08/21 08:05:45;;;;;;;17.45;6.20;;;;;;;;;;5094370;28;20501;-78
2023/08/21 08:08:11;;;;;;;23.20;6.90;;;;;;;;;;5095641;28;20042;-79
2023/08/21 08:10:40;;;;;;;19.52;5.78;;;19.50;99.90;;;;;;5080537;28;20089;-78
2023/08/21 08:13:07;;;;;;;17.10;5.43;;;19.40;99.90;;;;;;5075268;28;20131;-79
2023/08/21 08:15:34;;;;;;;17.38;7.28;;;19.80;99.90;;;;;;5084062;28;20132;-75
2023/08/21 08:18:01;;;;;;;17.83;6.22;;;19.70;99.90;;;;;;5041632;28;20047;-76
2023/08/21 08:20:27;;;;;;;18.48;6.47;;;;;;;;;;5068310;28;20462;-76
2023/08/21 08:22:52;;;;;;;18.52;6.03;;;19.30;99.90;;;;;;5078200;28;20050;-76
2023/08/21 08:25:19;;;;;;;17.73;6.05;;;;;;;;;;5083672;28;20122;-76
2023/08/21 08:27:45;;;;;;;16.98;5.97;;;;;;;;;;5070184;28;20032;-76
2023/08/21 08:30:10;;;;;;;18.15;6.80;;;20.10;99.90;;;;;;5059354;28;20047;-76
2023/08/21 08:32:37;;;;;;;23.58;6.72;;;;;;;;;;5084301;28;20036;-75
2023/08/21 08:35:03;;;;;;;19.48;6.63;;;;;;;;;;5077746;28;20150;-76
2023/08/21 08:37:29;;;;;;;23.73;6.82;;;;;;;;;;5089524;28;20042;-76
2023/08/21 08:39:54;;;;;;;19.88;5.72;;;20.80;99.90;;;;;;5094912;28;20165;-75
2023/08/21 08:42:21;;;;;;;13.52;5.03;;;;;;;;;;5065539;28;20077;-75
2023/08/21 08:44:47;;;;;;;19.77;6.07;;;19.10;99.90;;;;;;5074582;28;20476;-76
2023/08/21 08:47:14;;;;;;;13.38;6.03;;;19.20;99.90;;;;;;5080142;28;20036;-76
2023/08/21 08:49:40;;;;;;;16.67;5.80;;;;;;;;;;5059845;28;20120;-77
2023/08/21 08:52:07;;;;;;;12.95;5.18;;;19.70;99.90;;;;;;5075918;28;20043;-84
2023/08/21 08:54:35;;;;;;;13.98;4.60;;;21.20;99.90;;;;;;5091276;28;20054;-74
2023/08/21 08:57:01;;;;;;;14.10;4.55;;;20.50;99.90;;;;;;5088671;28;20048;-74
2023/08/21 08:59:30;;;;;;;20.55;5.18;;;20.70;99.90;;;;;;5058291;28;20400;-74
2023/08/21 09:01:56;;;;;;;10.50;4.40;;;21.30;99.90;;;;;;5060402;28;20040;-74
2023/08/21 09:04:22;;;;;;;14.40;5.00;;;20.40;99.90;;;;;;5081859;28;20138;-74
2023/08/21 09:06:48;;;;;;;15.88;4.60;;;;;;;;;;5098217;28;20032;-75
2023/08/21 09:09:14;;;;;;;16.83;5.43;;;21.60;99.90;;;;;;5090962;28;20036;-75
2023/08/21 09:11:44;;;;;;;16.02;5.40;;;21.70;99.90;;;;;;5095763;28;20104;-75
2023/08/21 09:14:11;;;;;;;15.02;4.57;;;21.00;99.90;;;;;;5066726;28;20044;-75
2023/08/21 09:16:37;;;;;;;16.90;4.47;;;;;;;;;;5061717;28;20048;-75
2023/08/21 09:19:03;;;;;;;16.77;5.80;;;20.60;99.90;;;;;;5092396;28;20043;-75
2023/08/21 09:21:28;;;;;;;17.05;5.43;;;21.70;99.90;;;;;;5077959;28;20499;-79
2023/08/21 09:24:05;;;;;;;15.27;5.28;;;22.20;99.90;;;;;;5094682;28;20036;-79
2023/08/21 09:26:34;;;;;;;19.25;5.28;;;19.90;99.90;;;;;;5094917;28;20044;-80
2023/08/21 09:29:04;;;;;;;15.32;5.60;;;21.60;99.90;;;;;;5068460;28;20089;-79
2023/08/21 09:31:32;;;;;;;22.63;6.15;;;22.00;99.90;;;;;;5078560;28;20108;-80
2023/08/21 09:34:06;;;;;;;12.35;4.57;;;21.50;99.90;;;;;;5066010;28;20039;-79
2023/08/21 09:36:33;;;;;;;54.85;8.13;;;22.10;99.90;;;;;;5077467;28;20055;-79
2023/08/21 09:38:59;;;;;;;16.52;4.60;;;22.80;99.90;;;;;;5077601;28;20047;-79
2023/08/21 09:41:26;;;;;;;24.10;4.88;;;22.80;99.90;;;;;;5060748;28;20488;-79
2023/08/21 09:43:52;;;;;;;24.23;4.53;;;;;;;;;;5080228;28;20492;-79
2023/08/21 09:46:25;;;;;;;11.13;3.10;;;22.00;99.90;;;;;;5046302;28;20044;-80
2023/08/21 09:48:52;;;;;;;14.05;3.33;;;22.40;99.90;;;;;;5061256;28;20040;-79
2023/08/21 09:51:18;;;;;;;17.55;3.65;;;22.40;99.90;;;;;;5079889;28;20065;-80
2023/08/21 09:53:45;;;;;;;8.02;2.40;;;23.00;99.90;;;;;;5065974;28;20039;-80
2023/08/21 09:56:12;;;;;;;10.82;2.38;;;22.70;99.90;;;;;;5077672;28;20553;-74
2023/08/21 09:58:38;;;;;;;19.38;2.53;;;23.50;99.90;;;;;;5085863;28;20050;-75
2023/08/21 10:01:13;;;;;;;10.07;2.60;;;22.90;98.90;;;;;;5096238;27;20047;-75
2023/08/21 10:03:44;;;;;;;13.18;2.40;;;23.50;99.90;;;;;;5105894;28;20040;-75
2023/08/21 10:06:12;;;;;;;15.68;2.70;;;23.20;99.30;;;;;;5089864;28;20072;-75
2023/08/21 10:08:42;;;;;;;11.77;2.60;;;23.60;99.90;;;;;;5078157;28;20105;-75
2023/08/21 10:11:09;;;;;;;12.82;2.20;;;23.90;99.90;;;;;;5074078;28;20108;-75
2023/08/21 10:13:37;;;;;;;13.05;2.60;;;24.00;99.90;;;;;;5083834;28;20028;-75
2023/08/21 10:16:05;;;;;;;9.25;2.05;;;23.40;97.80;;;;;;5098243;28;20169;-75
2023/08/21 10:18:36;;;;;;;12.98;2.63;;;23.70;99.90;;;;;;5071222;28;20463;-75
2023/08/21 10:21:17;;;;;;;9.73;2.38;;;23.90;99.90;;;;;;5097530;28;20387;-75
2023/08/21 10:23:49;;;;;;;10.48;2.40;;;24.40;97.60;;;;;;5074219;28;20155;-76
2023/08/21 10:26:18;;;;;;;15.73;2.33;;;24.30;99.90;;;;;;5080409;27;20398;-77
2023/08/21 10:28:55;;;;;;;11.00;2.80;;;24.70;99.90;;;;;;5090989;28;20100;-75
2023/08/21 10:31:38;;;;;;;7.35;2.20;;;24.50;99.90;;;;;;5093818;28;20071;-75
2023/08/21 10:34:12;;;;;;;11.05;2.35;;;24.00;99.90;;;;;;5079861;28;20471;-75
2023/08/21 10:36:44;;;;;;;8.38;2.63;;;24.20;99.90;;;;;;5062948;28;20451;-75
2023/08/21 10:39:21;;;;;;;15.32;2.40;;;24.60;95.20;;;;;;5086141;27;20123;-82
2023/08/21 10:42:09;;;;;;;8.18;2.03;;;25.00;95.80;;;;;;5076672;28;20044;-76
2023/08/21 10:45:05;;;;;;;10.13;2.20;;;25.00;94.90;;;;;;5075901;28;20395;-76
2023/08/21 10:47:34;;;;;;;6.75;2.20;;;25.10;96.60;;;;;;5074699;28;20074;-76
2023/08/21 10:50:03;;;;;;;11.65;2.53;;;25.00;97.60;;;;;;5076023;28;20048;-76
2023/08/21 10:52:32;;;;;;;10.32;2.67;;;25.40;94.80;;;;;;5059875;28;20032;-76
2023/08/21 10:54:59;;;;;;;13.13;2.95;;;25.60;94.20;;;;;;5076462;28;20518;-75
2023/08/21 10:57:27;;;;;;;14.95;2.72;;;26.00;96.50;;;;;;5059420;28;20056;-76
2023/08/21 10:59:54;;;;;;;18.55;3.22;;;26.20;93.90;;;;;;5076560;28;20468;-76
2023/08/21 11:02:21;;;;;;;12.85;3.35;;;25.70;94.00;;;;;;5076610;28;20443;-76
2023/08/21 11:04:48;;;;;;;12.82;2.50;;;26.10;97.70;;;;;;5059843;28;20044;-76
2023/08/21 11:07:14;;;;;;;11.48;3.17;;;;;;;;;;5076108;28;20041;-76
2023/08/21 11:09:40;;;;;;;10.75;2.90;;;;;;;;;;5076141;28;20036;-76
2023/08/21 11:12:17;;;;;;;15.68;3.03;;;25.70;97.10;;;;;;5059403;28;20122;-76
2023/08/21 11:14:43;;;;;;;7.72;2.28;;;24.50;97.00;;;;;;5076077;28;20036;-76
2023/08/21 11:17:10;;;;;;;8.07;2.55;;;24.50;96.90;;;;;;5059396;28;20135;-75
2023/08/21 11:19:36;;;;;;;7.05;2.35;;;23.60;94.50;;;;;;5059510;28;20518;-80
2023/08/21 11:22:08;;;;;;;7.22;2.05;;;24.40;94.20;;;;;;5075743;28;20036;-79
2023/08/21 11:24:37;;;;;;;9.23;1.90;;;24.50;97.70;;;;;;5059464;28;20040;-79
2023/08/21 11:27:04;;;;;;;9.15;2.20;;;24.40;93.50;;;;;;5075732;28;20127;-79
2023/08/21 11:29:40;;;;;;;7.60;2.45;;;25.20;97.30;;;;;;5075854;28;20447;-79
2023/08/21 11:32:21;;;;;;;9.65;2.45;;;25.30;97.20;;;;;;5059262;28;20047;-80
2023/08/21 11:34:55;;;;;;;10.30;2.67;;;25.50;93.20;;;;;;5058962;28;20032;-80
2023/08/21 11:37:23;;;;;;;9.82;2.45;;;25.30;94.80;;;;;;5058830;28;20085;-80
2023/08/21 11:39:54;;;;;;;13.77;2.20;;;25.20;96.10;;;;;;5075438;28;20093;-80
2023/08/21 11:42:22;;;;;;;11.57;2.15;;;25.30;92.00;;;;;;5075685;28;20349;-80
2023/08/21 11:44:50;;;;;;;9.45;2.28;;;25.80;95.60;;;;;;5075391;28;20593;-80
2023/08/21 11:47:17;;;;;;;7.65;2.17;;;25.90;95.80;;;;;;5075327;28;20040;-80
2023/08/21 11:49:44;;;;;;;8.90;2.30;;;25.70;95.50;;;;;;5075168;28;20093;-80
2023/08/21 11:52:11;;;;;;;10.27;2.80;;;25.60;95.70;;;;;;5079342;28;20046;-80
2023/08/21 11:54:39;;;;;;;9.00;2.60;;;25.70;95.50;;;;;;5075835;28;20035;-77
2023/08/21 11:57:13;;;;;;;12.73;3.42;;;25.60;91.30;;;;;;5082750;28;20051;-79
2023/08/21 11:59:39;;;;;;;11.80;3.05;;;26.10;90.50;;;;;;5072885;28;20120;-79
2023/08/21 12:02:17;;;;;;;10.73;2.67;;;26.20;89.00;;;;;;5052142;28;20127;-79
2023/08/21 12:04:43;;;;;;;11.65;3.72;;;;;;;;;;5077855;28;20080;-79
2023/08/21 12:07:09;;;;;;;7.60;2.50;;;26.20;94.40;;;;;;5073220;28;20036;-79
2023/08/21 12:09:35;;;;;;;10.52;3.15;;;26.60;94.50;;;;;;5073170;28;20039;-78
2023/08/21 12:12:01;;;;;;;10.25;2.30;;;26.60;94.10;;;;;;5087730;28;20297;-78
2023/08/21 12:14:28;;;;;;;11.18;2.90;;;26.70;93.60;;;;;;5070534;28;20066;-78
2023/08/21 12:16:54;;;;;;;8.43;2.97;;;;;;;;;;5073178;28;20044;-78
2023/08/21 12:19:23;;;;;;;7.47;3.28;;;27.10;93.40;;;;;;5070904;28;20430;-78
2023/08/21 12:21:49;;;;;;;12.30;3.75;;;26.80;87.60;;;;;;5088314;28;20036;-78
2023/08/21 12:24:14;;;;;;;8.27;3.40;;;27.00;93.60;;;;;;5076608;28;20046;-78
2023/08/21 12:26:40;;;;;;;11.52;3.10;;;27.00;93.70;;;;;;5061038;28;20519;-76
2023/08/21 12:29:06;;;;;;;17.27;4.70;;;;;;;;;;5082708;28;20047;-76
2023/08/21 12:31:32;;;;;;;13.32;4.50;;;26.70;90.80;;;;;;5064075;28;20045;-76
2023/08/21 12:33:58;;;;;;;11.98;3.40;;;26.60;91.50;;;;;;5065509;28;20342;-76
2023/08/21 12:36:24;;;;;;;14.55;5.15;;;26.30;94.50;;;;;;5056177;28;20044;-76
2023/08/21 12:38:49;;;;;;;14.32;3.90;;;25.50;94.30;;;;;;5060999;28;20039;-75
2023/08/21 12:41:15;;;;;;;15.07;4.43;;;25.30;94.20;;;;;;5081578;28;20036;-75
2023/08/21 12:43:41;;;;;;;14.13;4.07;;;25.70;94.30;;;;;;5084566;28;20048;-75
2023/08/21 12:46:07;;;;;;;10.82;3.78;;;;;;;;;;5065371;28;20127;-75
2023/08/21 12:48:33;;;;;;;12.23;3.92;;;26.20;91.20;;;;;;5074229;28;20040;-75
2023/08/21 12:50:59;;;;;;;12.68;5.32;;;;;;;;;;5068369;28;20036;-78
2023/08/21 12:53:25;;;;;;;12.32;4.43;;;;;;;;;;5070903;28;20032;-78
2023/08/21 12:55:50;;;;;;;14.25;4.10;;;27.00;93.10;;;;;;5051080;28;20071;-78
2023/08/21 12:58:18;;;;;;;9.85;2.92;;;;;;;;;;5086159;28;20467;-78
2023/08/21 13:00:43;;;;;;;9.20;2.47;;;27.10;94.20;;;;;;5085836;28;20521;-78
2023/08/21 13:03:09;;;;;;;13.60;3.53;;;26.80;93.60;;;;;;5077172;28;20071;-79
2023/08/21 13:05:35;;;;;;;12.88;3.03;;;26.70;93.60;;;;;;5080541;28;20035;-79
2023/08/21 13:08:01;;;;;;;11.75;2.88;;;26.70;91.20;;;;;;5098798;28;20041;-79
2023/08/21 13:10:26;;;;;;;7.60;1.90;;;27.00;92.80;;;;;;5098894;28;20035;-79
2023/08/21 13:12:52;;;;;;;9.23;2.70;;;27.00;92.20;;;;;;5097916;28;20093;-79
2023/08/21 13:15:18;;;;;;;8.77;2.28;;;;;;;;;;5081330;28;20036;-79
2023/08/21 13:17:44;;;;;;;9.48;2.35;;;27.20;92.00;;;;;;5068827;28;20421;-78
2023/08/21 13:20:10;;;;;;;9.98;1.90;;;26.20;91.40;;;;;;5082524;28;20036;-78